sensor_id;sensor_type;location;lat;lon;timestamp;P1;durP1;ratioP1;P2;durP2;ratioP2
82475;SDS011;72099;43.176;76.872;2023-12-20T00:02:48;7.60;;;3.45;;
82475;SDS011;72099;43.176;76.872;2023-12-20T00:05:49;6.03;;;3.30;;
82475;SDS011;72099;43.176;76.872;2023-12-20T00:08:50;10.32;;;3.63;;
82475;SDS011;72099;43.176;76.872;2023-12-20T00:11:51;7.82;;;3.63;;
82475;SDS011;72099;43.176;76.872;2023-12-20T00:14:51;5.55;;;3.20;;
82475;SDS011;72099;43.176;76.872;2023-12-20T00:17:52;6.60;;;3.53;;
82475;SDS011;72099;43.176;76.872;2023-12-20T00:20:53;7.53;;;4.18;;
82475;SDS011;72099;43.176;76.872;2023-12-20T00:23:54;7.50;;;3.28;;
82475;SDS011;72099;43.176;76.872;2023-12-20T00:26:55;9.20;;;3.53;;
82475;SDS011;72099;43.176;76.872;2023-12-20T00:29:55;5.40;;;2.90;;
82475;SDS011;72099;43.176;76.872;2023-12-20T00:32:56;5.07;;;2.83;;
82475;SDS011;72099;43.176;76.872;2023-12-20T00:35:57;4.90;;;2.85;;
82475;SDS011;72099;43.176;76.872;2023-12-20T00:38:58;6.65;;;3.35;;
82475;SDS011;72099;43.176;76.872;2023-12-20T00:41:59;5.80;;;2.90;;
82475;SDS011;72099;43.176;76.872;2023-12-20T00:45:00;6.00;;;3.42;;
82475;SDS011;72099;43.176;76.872;2023-12-20T00:48:01;7.32;;;3.38;;
82475;SDS011;72099;43.176;76.872;2023-12-20T00:51:02;6.15;;;3.08;;
82475;SDS011;72099;43.176;76.872;2023-12-20T00:54:03;6.53;;;3.70;;
82475;SDS011;72099;43.176;76.872;2023-12-20T00:57:04;5.05;;;3.10;;
82475;SDS011;72099;43.176;76.872;2023-12-20T01:00:05;5.68;;;3.65;;
82475;SDS011;72099;43.176;76.872;2023-12-20T01:03:07;8.10;;;4.13;;
82475;SDS011;72099;43.176;76.872;2023-12-20T01:06:07;7.15;;;4.30;;
82475;SDS011;72099;43.176;76.872;2023-12-20T01:09:08;8.43;;;4.75;;
82475;SDS011;72099;43.176;76.872;2023-12-20T01:12:09;5.97;;;3.70;;
82475;SDS011;72099;43.176;76.872;2023-12-20T01:15:10;6.47;;;3.90;;
82475;SDS011;72099;43.176;76.872;2023-12-20T01:18:11;6.22;;;3.70;;
82475;SDS011;72099;43.176;76.872;2023-12-20T01:21:12;5.93;;;3.42;;
82475;SDS011;72099;43.176;76.872;2023-12-20T01:24:13;11.55;;;5.00;;
82475;SDS011;72099;43.176;76.872;2023-12-20T01:27:14;7.85;;;4.03;;
82475;SDS011;72099;43.176;76.872;2023-12-20T01:30:15;8.57;;;4.65;;
82475;SDS011;72099;43.176;76.872;2023-12-20T01:33:15;6.45;;;3.83;;
82475;SDS011;72099;43.176;76.872;2023-12-20T01:36:16;6.30;;;3.72;;
82475;SDS011;72099;43.176;76.872;2023-12-20T01:39:17;10.05;;;3.97;;
82475;SDS011;72099;43.176;76.872;2023-12-20T01:42:18;7.28;;;4.18;;
82475;SDS011;72099;43.176;76.872;2023-12-20T01:45:19;7.22;;;3.38;;
82475;SDS011;72099;43.176;76.872;2023-12-20T01:48:19;5.38;;;3.60;;
82475;SDS011;72099;43.176;76.872;2023-12-20T01:51:21;6.00;;;3.35;;
82475;SDS011;72099;43.176;76.872;2023-12-20T01:54:22;6.70;;;3.60;;
82475;SDS011;72099;43.176;76.872;2023-12-20T01:57:23;7.55;;;3.65;;
82475;SDS011;72099;43.176;76.872;2023-12-20T02:00:25;6.13;;;3.67;;
82475;SDS011;72099;43.176;76.872;2023-12-20T02:03:28;7.82;;;3.28;;
82475;SDS011;72099;43.176;76.872;2023-12-20T02:09:55;6.18;;;3.22;;
82475;SDS011;72099;43.176;76.872;2023-12-20T02:12:57;7.85;;;3.45;;
82475;SDS011;72099;43.176;76.872;2023-12-20T02:15:58;6.18;;;3.17;;
82475;SDS011;72099;43.176;76.872;2023-12-20T02:18:59;8.50;;;4.03;;
82475;SDS011;72099;43.176;76.872;2023-12-20T02:22:09;9.57;;;3.92;;
82475;SDS011;72099;43.176;76.872;2023-12-20T02:25:10;6.95;;;3.53;;
82475;SDS011;72099;43.176;76.872;2023-12-20T02:28:11;6.40;;;3.28;;
82475;SDS011;72099;43.176;76.872;2023-12-20T02:31:12;7.05;;;3.90;;
82475;SDS011;72099;43.176;76.872;2023-12-20T02:34:13;6.90;;;3.80;;
82475;SDS011;72099;43.176;76.872;2023-12-20T02:37:14;8.85;;;5.25;;
82475;SDS011;72099;43.176;76.872;2023-12-20T02:40:15;6.72;;;3.63;;
82475;SDS011;72099;43.176;76.872;2023-12-20T02:43:16;8.35;;;4.07;;
82475;SDS011;72099;43.176;76.872;2023-12-20T02:46:16;9.93;;;4.18;;
82475;SDS011;72099;43.176;76.872;2023-12-20T02:49:18;10.43;;;4.80;;
82475;SDS011;72099;43.176;76.872;2023-12-20T02:52:19;9.13;;;5.57;;
82475;SDS011;72099;43.176;76.872;2023-12-20T02:55:20;9.05;;;5.15;;
82475;SDS011;72099;43.176;76.872;2023-12-20T02:58:20;12.45;;;6.00;;
82475;SDS011;72099;43.176;76.872;2023-12-20T03:01:21;15.02;;;5.40;;
82475;SDS011;72099;43.176;76.872;2023-12-20T03:04:22;10.55;;;5.50;;
82475;SDS011;72099;43.176;76.872;2023-12-20T03:07:23;14.50;;;6.60;;
82475;SDS011;72099;43.176;76.872;2023-12-20T03:10:24;11.50;;;5.88;;
82475;SDS011;72099;43.176;76.872;2023-12-20T03:13:25;12.35;;;6.20;;
82475;SDS011;72099;43.176;76.872;2023-12-20T03:16:25;14.75;;;6.03;;
82475;SDS011;72099;43.176;76.872;2023-12-20T03:19:26;10.65;;;5.40;;
82475;SDS011;72099;43.176;76.872;2023-12-20T03:22:27;11.60;;;5.93;;
82475;SDS011;72099;43.176;76.872;2023-12-20T03:25:28;10.25;;;5.18;;
82475;SDS011;72099;43.176;76.872;2023-12-20T03:28:29;14.73;;;6.63;;
82475;SDS011;72099;43.176;76.872;2023-12-20T03:31:30;12.18;;;5.40;;
82475;SDS011;72099;43.176;76.872;2023-12-20T03:34:31;10.57;;;5.88;;
82475;SDS011;72099;43.176;76.872;2023-12-20T03:37:31;11.65;;;5.97;;
82475;SDS011;72099;43.176;76.872;2023-12-20T03:40:33;15.35;;;6.32;;
82475;SDS011;72099;43.176;76.872;2023-12-20T03:43:34;12.35;;;6.63;;
82475;SDS011;72099;43.176;76.872;2023-12-20T03:46:35;14.45;;;6.63;;
82475;SDS011;72099;43.176;76.872;2023-12-20T03:49:35;16.77;;;6.75;;
82475;SDS011;72099;43.176;76.872;2023-12-20T03:52:39;15.23;;;6.68;;
82475;SDS011;72099;43.176;76.872;2023-12-20T03:55:40;12.07;;;6.32;;
82475;SDS011;72099;43.176;76.872;2023-12-20T03:58:41;16.20;;;7.70;;
82475;SDS011;72099;43.176;76.872;2023-12-20T04:01:44;12.45;;;6.70;;
82475;SDS011;72099;43.176;76.872;2023-12-20T04:04:45;16.77;;;8.40;;
82475;SDS011;72099;43.176;76.872;2023-12-20T04:07:46;22.02;;;9.10;;
82475;SDS011;72099;43.176;76.872;2023-12-20T04:10:47;23.63;;;9.93;;
82475;SDS011;72099;43.176;76.872;2023-12-20T04:13:48;26.17;;;12.65;;
82475;SDS011;72099;43.176;76.872;2023-12-20T04:16:48;26.05;;;12.75;;
82475;SDS011;72099;43.176;76.872;2023-12-20T04:19:49;28.02;;;13.45;;
82475;SDS011;72099;43.176;76.872;2023-12-20T04:22:51;32.15;;;14.88;;
82475;SDS011;72099;43.176;76.872;2023-12-20T04:25:52;29.50;;;14.40;;
82475;SDS011;72099;43.176;76.872;2023-12-20T04:28:53;32.92;;;14.95;;
82475;SDS011;72099;43.176;76.872;2023-12-20T04:31:54;33.72;;;15.07;;
82475;SDS011;72099;43.176;76.872;2023-12-20T04:34:55;31.25;;;15.32;;
82475;SDS011;72099;43.176;76.872;2023-12-20T04:37:56;32.67;;;15.07;;
82475;SDS011;72099;43.176;76.872;2023-12-20T04:40:57;34.00;;;16.48;;
82475;SDS011;72099;43.176;76.872;2023-12-20T04:43:58;35.13;;;16.35;;
82475;SDS011;72099;43.176;76.872;2023-12-20T04:46:59;39.47;;;17.73;;
82475;SDS011;72099;43.176;76.872;2023-12-20T04:50:00;38.20;;;18.02;;
82475;SDS011;72099;43.176;76.872;2023-12-20T04:53:01;38.00;;;17.48;;
82475;SDS011;72099;43.176;76.872;2023-12-20T04:56:02;43.17;;;18.33;;
82475;SDS011;72099;43.176;76.872;2023-12-20T04:59:03;42.53;;;19.20;;
82475;SDS011;72099;43.176;76.872;2023-12-20T05:02:03;43.22;;;19.27;;
82475;SDS011;72099;43.176;76.872;2023-12-20T05:05:04;45.50;;;22.70;;
82475;SDS011;72099;43.176;76.872;2023-12-20T05:08:05;46.42;;;22.25;;
82475;SDS011;72099;43.176;76.872;2023-12-20T05:11:06;44.88;;;22.95;;
82475;SDS011;72099;43.176;76.872;2023-12-20T05:14:07;49.40;;;24.33;;
82475;SDS011;72099;43.176;76.872;2023-12-20T05:17:08;51.95;;;26.15;;
82475;SDS011;72099;43.176;76.872;2023-12-20T05:20:09;57.47;;;27.17;;
82475;SDS011;72099;43.176;76.872;2023-12-20T05:23:10;50.20;;;24.58;;
82475;SDS011;72099;43.176;76.872;2023-12-20T05:26:11;51.67;;;25.17;;
82475;SDS011;72099;43.176;76.872;2023-12-20T05:29:12;57.38;;;29.80;;
82475;SDS011;72099;43.176;76.872;2023-12-20T05:32:13;60.63;;;31.13;;
82475;SDS011;72099;43.176;76.872;2023-12-20T05:35:14;59.38;;;30.35;;
82475;SDS011;72099;43.176;76.872;2023-12-20T05:38:15;65.30;;;30.60;;
82475;SDS011;72099;43.176;76.872;2023-12-20T05:41:16;63.88;;;30.38;;
82475;SDS011;72099;43.176;76.872;2023-12-20T05:44:17;67.35;;;32.78;;
82475;SDS011;72099;43.176;76.872;2023-12-20T05:47:19;73.10;;;33.88;;
82475;SDS011;72099;43.176;76.872;2023-12-20T05:50:20;75.70;;;34.75;;
82475;SDS011;72099;43.176;76.872;2023-12-20T05:53:21;78.53;;;36.95;;
82475;SDS011;72099;43.176;76.872;2023-12-20T05:56:22;90.05;;;39.95;;
82475;SDS011;72099;43.176;76.872;2023-12-20T05:59:23;80.22;;;37.95;;
82475;SDS011;72099;43.176;76.872;2023-12-20T06:02:24;90.95;;;41.28;;
82475;SDS011;72099;43.176;76.872;2023-12-20T06:05:24;82.60;;;38.45;;
82475;SDS011;72099;43.176;76.872;2023-12-20T06:08:25;84.78;;;41.80;;
82475;SDS011;72099;43.176;76.872;2023-12-20T06:11:26;80.45;;;41.15;;
82475;SDS011;72099;43.176;76.872;2023-12-20T06:14:27;81.78;;;41.70;;
82475;SDS011;72099;43.176;76.872;2023-12-20T06:17:28;80.35;;;38.40;;
82475;SDS011;72099;43.176;76.872;2023-12-20T06:20:32;87.78;;;40.70;;
82475;SDS011;72099;43.176;76.872;2023-12-20T06:23:33;91.30;;;44.03;;
82475;SDS011;72099;43.176;76.872;2023-12-20T06:26:34;76.78;;;40.00;;
82475;SDS011;72099;43.176;76.872;2023-12-20T06:29:34;74.43;;;37.28;;
82475;SDS011;72099;43.176;76.872;2023-12-20T06:32:35;74.80;;;35.85;;
82475;SDS011;72099;43.176;76.872;2023-12-20T06:35:37;74.53;;;35.78;;
82475;SDS011;72099;43.176;76.872;2023-12-20T06:38:38;65.82;;;34.95;;
82475;SDS011;72099;43.176;76.872;2023-12-20T06:41:39;72.22;;;34.60;;
82475;SDS011;72099;43.176;76.872;2023-12-20T06:44:40;64.50;;;32.20;;
82475;SDS011;72099;43.176;76.872;2023-12-20T06:47:41;72.32;;;35.83;;
82475;SDS011;72099;43.176;76.872;2023-12-20T06:50:42;69.75;;;34.22;;
82475;SDS011;72099;43.176;76.872;2023-12-20T06:53:43;67.28;;;31.05;;
82475;SDS011;72099;43.176;76.872;2023-12-20T06:56:44;60.25;;;32.15;;
82475;SDS011;72099;43.176;76.872;2023-12-20T06:59:45;59.55;;;26.73;;
82475;SDS011;72099;43.176;76.872;2023-12-20T07:02:45;56.90;;;28.42;;
82475;SDS011;72099;43.176;76.872;2023-12-20T07:05:47;56.63;;;26.92;;
82475;SDS011;72099;43.176;76.872;2023-12-20T07:08:48;60.05;;;28.20;;
82475;SDS011;72099;43.176;76.872;2023-12-20T07:11:51;55.28;;;26.75;;
82475;SDS011;72099;43.176;76.872;2023-12-20T07:14:52;53.22;;;26.20;;
82475;SDS011;72099;43.176;76.872;2023-12-20T07:17:53;53.38;;;24.05;;
82475;SDS011;72099;43.176;76.872;2023-12-20T07:20:54;48.03;;;22.55;;
82475;SDS011;72099;43.176;76.872;2023-12-20T07:23:55;53.45;;;23.42;;
82475;SDS011;72099;43.176;76.872;2023-12-20T07:26:56;41.00;;;19.55;;
82475;SDS011;72099;43.176;76.872;2023-12-20T07:29:57;48.00;;;20.85;;
82475;SDS011;72099;43.176;76.872;2023-12-20T07:32:58;45.72;;;23.33;;
82475;SDS011;72099;43.176;76.872;2023-12-20T07:35:59;46.88;;;23.02;;
82475;SDS011;72099;43.176;76.872;2023-12-20T07:39:00;55.63;;;24.98;;
82475;SDS011;72099;43.176;76.872;2023-12-20T07:42:01;57.05;;;24.80;;
82475;SDS011;72099;43.176;76.872;2023-12-20T07:45:03;47.78;;;23.27;;
82475;SDS011;72099;43.176;76.872;2023-12-20T07:48:04;41.65;;;21.73;;
82475;SDS011;72099;43.176;76.872;2023-12-20T07:51:06;50.35;;;24.95;;
82475;SDS011;72099;43.176;76.872;2023-12-20T07:54:09;62.60;;;29.40;;
82475;SDS011;72099;43.176;76.872;2023-12-20T07:57:10;60.85;;;27.95;;
82475;SDS011;72099;43.176;76.872;2023-12-20T08:00:12;64.50;;;29.15;;
82475;SDS011;72099;43.176;76.872;2023-12-20T08:03:13;64.53;;;27.90;;
82475;SDS011;72099;43.176;76.872;2023-12-20T08:09:51;60.63;;;25.48;;
82475;SDS011;72099;43.176;76.872;2023-12-20T08:12:52;59.50;;;23.83;;
82475;SDS011;72099;43.176;76.872;2023-12-20T08:19:44;52.40;;;20.55;;
82475;SDS011;72099;43.176;76.872;2023-12-20T08:22:44;41.97;;;18.65;;
82475;SDS011;72099;43.176;76.872;2023-12-20T08:29:24;44.97;;;19.17;;
82475;SDS011;72099;43.176;76.872;2023-12-20T08:32:25;40.97;;;19.83;;
82475;SDS011;72099;43.176;76.872;2023-12-20T08:35:27;41.75;;;20.83;;
82475;SDS011;72099;43.176;76.872;2023-12-20T08:38:27;50.97;;;21.42;;
82475;SDS011;72099;43.176;76.872;2023-12-20T08:41:28;44.58;;;20.65;;
82475;SDS011;72099;43.176;76.872;2023-12-20T08:44:29;46.10;;;21.33;;
82475;SDS011;72099;43.176;76.872;2023-12-20T08:47:30;44.70;;;20.20;;
82475;SDS011;72099;43.176;76.872;2023-12-20T08:50:31;42.55;;;20.88;;
82475;SDS011;72099;43.176;76.872;2023-12-20T08:53:31;42.90;;;21.80;;
82475;SDS011;72099;43.176;76.872;2023-12-20T08:56:34;43.67;;;21.27;;
82475;SDS011;72099;43.176;76.872;2023-12-20T08:59:35;48.78;;;23.15;;
82475;SDS011;72099;43.176;76.872;2023-12-20T09:02:35;44.25;;;20.95;;
82475;SDS011;72099;43.176;76.872;2023-12-20T09:05:37;40.63;;;19.17;;
82475;SDS011;72099;43.176;76.872;2023-12-20T09:08:38;34.75;;;18.33;;
82475;SDS011;72099;43.176;76.872;2023-12-20T09:11:39;44.72;;;20.70;;
82475;SDS011;72099;43.176;76.872;2023-12-20T09:14:40;47.65;;;21.90;;
82475;SDS011;72099;43.176;76.872;2023-12-20T09:17:41;43.20;;;20.80;;
82475;SDS011;72099;43.176;76.872;2023-12-20T09:20:42;44.83;;;23.80;;
82475;SDS011;72099;43.176;76.872;2023-12-20T09:23:43;45.80;;;22.27;;
82475;SDS011;72099;43.176;76.872;2023-12-20T09:26:44;52.05;;;22.58;;
82475;SDS011;72099;43.176;76.872;2023-12-20T09:29:44;44.97;;;21.85;;
82475;SDS011;72099;43.176;76.872;2023-12-20T09:32:45;48.10;;;21.63;;
82475;SDS011;72099;43.176;76.872;2023-12-20T09:35:46;49.55;;;21.83;;
82475;SDS011;72099;43.176;76.872;2023-12-20T09:38:47;39.83;;;19.40;;
82475;SDS011;72099;43.176;76.872;2023-12-20T09:42:10;36.15;;;18.92;;
82475;SDS011;72099;43.176;76.872;2023-12-20T09:45:11;41.42;;;19.42;;
82475;SDS011;72099;43.176;76.872;2023-12-20T09:48:17;39.28;;;19.25;;
82475;SDS011;72099;43.176;76.872;2023-12-20T09:51:19;37.63;;;18.05;;
82475;SDS011;72099;43.176;76.872;2023-12-20T09:54:21;38.53;;;18.63;;
82475;SDS011;72099;43.176;76.872;2023-12-20T09:57:24;40.67;;;19.63;;
82475;SDS011;72099;43.176;76.872;2023-12-20T10:00:24;38.72;;;18.05;;
82475;SDS011;72099;43.176;76.872;2023-12-20T10:03:25;42.05;;;19.05;;
82475;SDS011;72099;43.176;76.872;2023-12-20T10:06:29;31.85;;;16.20;;
82475;SDS011;72099;43.176;76.872;2023-12-20T10:09:30;27.48;;;14.77;;
82475;SDS011;72099;43.176;76.872;2023-12-20T10:12:32;29.27;;;15.43;;
82475;SDS011;72099;43.176;76.872;2023-12-20T10:15:33;30.10;;;15.45;;
82475;SDS011;72099;43.176;76.872;2023-12-20T10:21:36;24.30;;;12.48;;
82475;SDS011;72099;43.176;76.872;2023-12-20T10:24:37;19.98;;;9.43;;
82475;SDS011;72099;43.176;76.872;2023-12-20T10:27:37;16.80;;;8.88;;
82475;SDS011;72099;43.176;76.872;2023-12-20T10:30:38;15.57;;;7.97;;
82475;SDS011;72099;43.176;76.872;2023-12-20T10:33:40;16.95;;;8.38;;
82475;SDS011;72099;43.176;76.872;2023-12-20T10:36:41;16.80;;;8.27;;
82475;SDS011;72099;43.176;76.872;2023-12-20T10:39:47;14.75;;;7.50;;
82475;SDS011;72099;43.176;76.872;2023-12-20T10:42:51;15.98;;;7.63;;
82475;SDS011;72099;43.176;76.872;2023-12-20T10:45:53;16.52;;;9.35;;
82475;SDS011;72099;43.176;76.872;2023-12-20T10:48:54;16.85;;;8.73;;
82475;SDS011;72099;43.176;76.872;2023-12-20T10:51:56;16.35;;;8.50;;
82475;SDS011;72099;43.176;76.872;2023-12-20T10:55:00;14.73;;;7.55;;
82475;SDS011;72099;43.176;76.872;2023-12-20T10:58:01;15.77;;;8.20;;
82475;SDS011;72099;43.176;76.872;2023-12-20T11:01:07;16.48;;;8.85;;
82475;SDS011;72099;43.176;76.872;2023-12-20T11:04:09;18.05;;;8.20;;
82475;SDS011;72099;43.176;76.872;2023-12-20T11:07:21;13.55;;;7.55;;
82475;SDS011;72099;43.176;76.872;2023-12-20T11:10:34;12.15;;;6.63;;
82475;SDS011;72099;43.176;76.872;2023-12-20T11:13:41;10.27;;;5.80;;
82475;SDS011;72099;43.176;76.872;2023-12-20T11:20:35;11.10;;;6.65;;
82475;SDS011;72099;43.176;76.872;2023-12-20T11:23:37;10.60;;;6.30;;
82475;SDS011;72099;43.176;76.872;2023-12-20T11:26:38;13.70;;;7.68;;
82475;SDS011;72099;43.176;76.872;2023-12-20T11:29:52;11.98;;;6.28;;
82475;SDS011;72099;43.176;76.872;2023-12-20T11:32:54;10.15;;;5.78;;
82475;SDS011;72099;43.176;76.872;2023-12-20T11:35:56;12.95;;;7.63;;
82475;SDS011;72099;43.176;76.872;2023-12-20T11:38:59;12.00;;;7.10;;
82475;SDS011;72099;43.176;76.872;2023-12-20T11:42:06;12.73;;;7.63;;
82475;SDS011;72099;43.176;76.872;2023-12-20T11:45:08;12.30;;;7.32;;
82475;SDS011;72099;43.176;76.872;2023-12-20T11:48:15;14.70;;;8.40;;
82475;SDS011;72099;43.176;76.872;2023-12-20T11:51:16;13.82;;;7.65;;
82475;SDS011;72099;43.176;76.872;2023-12-20T11:54:17;15.05;;;7.97;;
82475;SDS011;72099;43.176;76.872;2023-12-20T11:57:18;13.23;;;7.22;;
82475;SDS011;72099;43.176;76.872;2023-12-20T12:00:19;13.27;;;6.85;;
82475;SDS011;72099;43.176;76.872;2023-12-20T12:03:21;13.77;;;7.68;;
82475;SDS011;72099;43.176;76.872;2023-12-20T12:06:24;14.73;;;8.38;;
82475;SDS011;72099;43.176;76.872;2023-12-20T12:09:24;15.43;;;8.68;;
82475;SDS011;72099;43.176;76.872;2023-12-20T12:12:25;16.33;;;8.50;;
82475;SDS011;72099;43.176;76.872;2023-12-20T12:15:27;13.45;;;6.53;;
82475;SDS011;72099;43.176;76.872;2023-12-20T12:18:29;10.90;;;5.97;;
82475;SDS011;72099;43.176;76.872;2023-12-20T12:21:30;14.13;;;6.45;;
82475;SDS011;72099;43.176;76.872;2023-12-20T12:24:31;16.40;;;8.95;;
82475;SDS011;72099;43.176;76.872;2023-12-20T12:27:31;15.43;;;8.63;;
82475;SDS011;72099;43.176;76.872;2023-12-20T12:30:33;23.00;;;10.50;;
82475;SDS011;72099;43.176;76.872;2023-12-20T12:33:34;19.13;;;10.60;;
82475;SDS011;72099;43.176;76.872;2023-12-20T12:36:35;20.83;;;10.32;;
82475;SDS011;72099;43.176;76.872;2023-12-20T12:39:36;20.38;;;10.02;;
82475;SDS011;72099;43.176;76.872;2023-12-20T12:42:37;20.95;;;9.77;;
82475;SDS011;72099;43.176;76.872;2023-12-20T12:45:38;23.45;;;10.75;;
82475;SDS011;72099;43.176;76.872;2023-12-20T12:48:39;23.45;;;10.48;;
82475;SDS011;72099;43.176;76.872;2023-12-20T12:51:40;19.33;;;9.75;;
82475;SDS011;72099;43.176;76.872;2023-12-20T12:54:41;14.88;;;8.10;;
82475;SDS011;72099;43.176;76.872;2023-12-20T12:57:42;15.73;;;7.70;;
82475;SDS011;72099;43.176;76.872;2023-12-20T13:00:43;15.57;;;7.30;;
82475;SDS011;72099;43.176;76.872;2023-12-20T13:03:44;13.55;;;7.32;;
82475;SDS011;72099;43.176;76.872;2023-12-20T13:06:45;15.00;;;7.35;;
82475;SDS011;72099;43.176;76.872;2023-12-20T13:09:47;9.93;;;6.22;;
82475;SDS011;72099;43.176;76.872;2023-12-20T13:12:48;14.57;;;7.32;;
82475;SDS011;72099;43.176;76.872;2023-12-20T13:19:26;15.23;;;8.13;;
82475;SDS011;72099;43.176;76.872;2023-12-20T13:22:26;14.98;;;8.95;;
82475;SDS011;72099;43.176;76.872;2023-12-20T13:25:28;19.00;;;9.77;;
82475;SDS011;72099;43.176;76.872;2023-12-20T13:28:29;16.08;;;8.38;;
82475;SDS011;72099;43.176;76.872;2023-12-20T13:31:29;14.85;;;6.65;;
82475;SDS011;72099;43.176;76.872;2023-12-20T13:34:31;12.60;;;7.20;;
82475;SDS011;72099;43.176;76.872;2023-12-20T13:37:32;10.05;;;5.35;;
82475;SDS011;72099;43.176;76.872;2023-12-20T13:40:33;9.10;;;4.85;;
82475;SDS011;72099;43.176;76.872;2023-12-20T13:43:34;9.55;;;4.63;;
82475;SDS011;72099;43.176;76.872;2023-12-20T13:46:35;7.82;;;4.90;;
82475;SDS011;72099;43.176;76.872;2023-12-20T13:49:37;9.52;;;4.38;;
82475;SDS011;72099;43.176;76.872;2023-12-20T13:52:38;9.40;;;4.60;;
82475;SDS011;72099;43.176;76.872;2023-12-20T13:55:39;11.15;;;5.78;;
82475;SDS011;72099;43.176;76.872;2023-12-20T13:58:40;10.13;;;5.13;;
82475;SDS011;72099;43.176;76.872;2023-12-20T14:01:41;9.10;;;5.13;;
82475;SDS011;72099;43.176;76.872;2023-12-20T14:04:42;11.32;;;4.97;;
82475;SDS011;72099;43.176;76.872;2023-12-20T14:07:43;9.85;;;5.22;;
82475;SDS011;72099;43.176;76.872;2023-12-20T14:10:47;10.30;;;5.43;;
82475;SDS011;72099;43.176;76.872;2023-12-20T14:13:48;8.75;;;4.53;;
82475;SDS011;72099;43.176;76.872;2023-12-20T14:16:49;11.93;;;6.32;;
82475;SDS011;72099;43.176;76.872;2023-12-20T14:19:51;11.48;;;6.13;;
82475;SDS011;72099;43.176;76.872;2023-12-20T14:22:52;15.77;;;7.70;;
82475;SDS011;72099;43.176;76.872;2023-12-20T14:29:30;15.00;;;7.55;;
82475;SDS011;72099;43.176;76.872;2023-12-20T14:32:31;10.98;;;7.03;;
82475;SDS011;72099;43.176;76.872;2023-12-20T14:35:32;13.00;;;6.43;;
82475;SDS011;72099;43.176;76.872;2023-12-20T14:38:33;11.50;;;5.85;;
82475;SDS011;72099;43.176;76.872;2023-12-20T14:41:34;11.07;;;5.88;;
82475;SDS011;72099;43.176;76.872;2023-12-20T14:44:35;12.90;;;5.75;;
82475;SDS011;72099;43.176;76.872;2023-12-20T14:47:36;9.02;;;4.60;;
82475;SDS011;72099;43.176;76.872;2023-12-20T14:50:37;8.98;;;5.30;;
82475;SDS011;72099;43.176;76.872;2023-12-20T14:53:37;8.43;;;4.80;;
82475;SDS011;72099;43.176;76.872;2023-12-20T15:03:19;12.15;;;7.32;;
82475;SDS011;72099;43.176;76.872;2023-12-20T15:06:20;17.75;;;8.15;;
82475;SDS011;72099;43.176;76.872;2023-12-20T15:09:22;18.38;;;8.02;;
82475;SDS011;72099;43.176;76.872;2023-12-20T15:12:22;20.50;;;8.55;;
82475;SDS011;72099;43.176;76.872;2023-12-20T15:15:26;20.17;;;8.77;;
82475;SDS011;72099;43.176;76.872;2023-12-20T15:18:30;20.15;;;9.30;;
82475;SDS011;72099;43.176;76.872;2023-12-20T15:21:32;18.42;;;9.85;;
82475;SDS011;72099;43.176;76.872;2023-12-20T15:24:40;22.48;;;8.07;;
82475;SDS011;72099;43.176;76.872;2023-12-20T15:27:42;16.85;;;7.50;;
82475;SDS011;72099;43.176;76.872;2023-12-20T15:30:43;16.05;;;7.80;;
82475;SDS011;72099;43.176;76.872;2023-12-20T15:33:44;19.80;;;8.43;;
82475;SDS011;72099;43.176;76.872;2023-12-20T15:36:45;15.15;;;7.47;;
82475;SDS011;72099;43.176;76.872;2023-12-20T15:39:46;14.80;;;7.60;;
82475;SDS011;72099;43.176;76.872;2023-12-20T15:42:47;14.07;;;7.55;;
82475;SDS011;72099;43.176;76.872;2023-12-20T15:45:47;12.85;;;6.43;;
82475;SDS011;72099;43.176;76.872;2023-12-20T15:48:48;16.67;;;7.72;;
82475;SDS011;72099;43.176;76.872;2023-12-20T15:51:50;18.63;;;7.15;;
82475;SDS011;72099;43.176;76.872;2023-12-20T15:54:51;16.23;;;8.18;;
82475;SDS011;72099;43.176;76.872;2023-12-20T15:57:52;16.10;;;7.35;;
82475;SDS011;72099;43.176;76.872;2023-12-20T16:00:53;15.93;;;7.38;;
82475;SDS011;72099;43.176;76.872;2023-12-20T16:03:54;14.80;;;8.25;;
82475;SDS011;72099;43.176;76.872;2023-12-20T16:06:54;14.32;;;7.45;;
82475;SDS011;72099;43.176;76.872;2023-12-20T16:09:55;18.92;;;8.40;;
82475;SDS011;72099;43.176;76.872;2023-12-20T16:12:56;19.20;;;9.27;;
82475;SDS011;72099;43.176;76.872;2023-12-20T16:15:57;17.98;;;8.07;;
82475;SDS011;72099;43.176;76.872;2023-12-20T16:19:01;17.08;;;7.95;;
82475;SDS011;72099;43.176;76.872;2023-12-20T16:22:02;14.73;;;7.32;;
82475;SDS011;72099;43.176;76.872;2023-12-20T16:25:03;15.68;;;7.18;;
82475;SDS011;72099;43.176;76.872;2023-12-20T16:28:05;16.80;;;6.93;;
82475;SDS011;72099;43.176;76.872;2023-12-20T16:31:06;8.35;;;4.50;;
82475;SDS011;72099;43.176;76.872;2023-12-20T16:34:09;17.77;;;7.05;;
82475;SDS011;72099;43.176;76.872;2023-12-20T16:37:10;12.25;;;5.10;;
82475;SDS011;72099;43.176;76.872;2023-12-20T16:40:11;14.68;;;5.63;;
82475;SDS011;72099;43.176;76.872;2023-12-20T16:43:12;17.92;;;8.80;;
82475;SDS011;72099;43.176;76.872;2023-12-20T16:49:38;16.42;;;6.55;;
82475;SDS011;72099;43.176;76.872;2023-12-20T16:52:39;16.00;;;6.53;;
82475;SDS011;72099;43.176;76.872;2023-12-20T16:58:44;16.45;;;6.97;;
82475;SDS011;72099;43.176;76.872;2023-12-20T17:01:45;15.88;;;7.97;;
82475;SDS011;72099;43.176;76.872;2023-12-20T17:08:22;12.40;;;6.10;;
82475;SDS011;72099;43.176;76.872;2023-12-20T17:11:25;11.27;;;5.60;;
82475;SDS011;72099;43.176;76.872;2023-12-20T17:14:26;11.68;;;5.72;;
82475;SDS011;72099;43.176;76.872;2023-12-20T17:17:27;11.50;;;5.25;;
82475;SDS011;72099;43.176;76.872;2023-12-20T17:20:27;11.80;;;5.68;;
82475;SDS011;72099;43.176;76.872;2023-12-20T17:23:28;12.70;;;6.35;;
82475;SDS011;72099;43.176;76.872;2023-12-20T17:26:45;11.35;;;5.57;;
82475;SDS011;72099;43.176;76.872;2023-12-20T17:29:46;12.50;;;6.70;;
82475;SDS011;72099;43.176;76.872;2023-12-20T17:32:47;13.15;;;7.15;;
82475;SDS011;72099;43.176;76.872;2023-12-20T17:35:49;10.02;;;5.28;;
82475;SDS011;72099;43.176;76.872;2023-12-20T17:38:50;13.73;;;6.68;;
82475;SDS011;72099;43.176;76.872;2023-12-20T17:41:51;13.63;;;6.20;;
82475;SDS011;72099;43.176;76.872;2023-12-20T17:48:12;9.68;;;5.00;;
82475;SDS011;72099;43.176;76.872;2023-12-20T17:51:13;11.40;;;5.85;;
82475;SDS011;72099;43.176;76.872;2023-12-20T17:54:14;11.50;;;6.07;;
82475;SDS011;72099;43.176;76.872;2023-12-20T17:57:15;11.20;;;6.10;;
82475;SDS011;72099;43.176;76.872;2023-12-20T18:00:19;9.88;;;5.30;;
82475;SDS011;72099;43.176;76.872;2023-12-20T18:03:21;9.88;;;5.25;;
82475;SDS011;72099;43.176;76.872;2023-12-20T18:06:22;7.82;;;4.50;;
82475;SDS011;72099;43.176;76.872;2023-12-20T18:09:24;12.90;;;6.38;;
82475;SDS011;72099;43.176;76.872;2023-12-20T18:12:24;9.90;;;5.90;;
82475;SDS011;72099;43.176;76.872;2023-12-20T18:15:25;8.68;;;5.10;;
82475;SDS011;72099;43.176;76.872;2023-12-20T18:18:26;9.73;;;4.75;;
82475;SDS011;72099;43.176;76.872;2023-12-20T18:21:27;7.95;;;4.85;;
82475;SDS011;72099;43.176;76.872;2023-12-20T18:24:29;10.10;;;5.43;;
82475;SDS011;72099;43.176;76.872;2023-12-20T18:27:30;9.93;;;4.93;;
82475;SDS011;72099;43.176;76.872;2023-12-20T18:30:31;10.15;;;4.60;;